Time;durP1;ratioP1;P1;durP2;ratioP2;P2;SDS_P1;SDS_P2;PMS_P1;PMS_P2;Temp;Humidity;BMP_temperature;BMP_pressure;BME280_temperature;BME280_humidity;BME280_pressure;Samples;Min_cycle;Max_cycle;Signal;HPM_P1;HPM_P2
2021/01/03 00:12:16;;;;;;;;;;;;;;;;;;;;;
2021/01/03 00:22:43;;;;;;;;;;;;;;;;;;;;;
2021/01/03 00:25:54;;;;;;;;;;;;;;;;;;;;;
2021/01/03 00:36:19;;;;;;;105.67;41.40;;;7.40;99.90;;;;;;4920730;29;20591;-91
2021/01/03 00:39:19;;;;;;;110.87;43.10;;;7.40;99.90;;;;;;4917398;29;20191;-91
2021/01/03 00:53:11;;;;;;;;;;;;;;;;;;;;;
2021/01/03 00:56:30;;;;;;;;;;;;;;;;;;;;;
2021/01/03 00:59:41;;;;;;;107.73;40.57;;;7.60;99.90;;;;;;4957937;28;20190;-90
2021/01/03 01:09:28;;;;;;;;;;;;;;;;;;;;;
2021/01/03 01:12:45;;;;;;;102.73;38.30;;;7.70;99.90;;;;;;4996945;28;20168;-91
2021/01/03 01:15:48;;;;;;;103.97;38.87;;;7.80;99.90;;;;;;4960187;28;20182;-91
2021/01/03 01:19:08;;;;;;;101.20;40.57;;;7.80;99.90;;;;;;4947599;28;20268;-91
2021/01/03 01:22:11;;;;;;;;;;;;;;;;;;;;;
2021/01/03 01:25:35;;;;;;;107.63;41.70;;;7.70;99.90;;;;;;4996324;28;20176;-91
2021/01/03 01:28:39;;;;;;;;;;;;;;;;;;;;;
2021/01/03 01:31:49;;;;;;;100.70;40.97;;;7.70;99.90;;;;;;4996882;28;20189;-91
2021/01/03 01:38:23;;;;;;;;;;;;;;;;;;;;;
2021/01/03 01:40:57;;;;;;;101.97;39.63;;;7.70;99.90;;;;;;4996561;28;20208;-91
2021/01/03 01:43:47;;;;;;;104.43;39.70;;;7.80;99.90;;;;;;4995632;28;20180;-91
2021/01/03 01:50:36;;;;;;;;;;;;;;;;;;;;;
2021/01/03 01:53:56;;;;;;;105.50;41.43;;;7.70;99.90;;;;;;4980657;28;20200;-90
2021/01/03 02:11:10;;;;;;;107.83;40.10;;;7.70;99.90;;;;;;5034926;28;20213;-91
2021/01/03 02:14:17;;;;;;;;;;;;;;;;;;;;;
2021/01/03 02:20:50;;;;;;;105.50;39.73;;;7.90;99.90;;;;;;4977192;28;20255;-90
2021/01/03 02:23:53;;;;;;;;;;;;;;;;;;;;;
2021/01/03 02:27:09;;;;;;;;;;;;;;;;;;;;;
2021/01/03 02:34:22;;;;;;;103.17;39.67;;;7.90;99.90;;;;;;5013711;28;20247;-89
2021/01/03 02:37:34;;;;;;;;;;;;;;;;;;;;;
2021/01/03 02:46:42;;;;;;;;;;;;;;;;;;;;;
2021/01/03 02:53:14;;;;;;;110.33;40.80;;;7.90;99.90;;;;;;4951805;29;20214;-89
2021/01/03 02:56:15;;;;;;;;;;;;;;;;;;;;;
2021/01/03 02:59:12;;;;;;;;;;;;;;;;;;;;;
2021/01/03 03:02:06;;;;;;;115.90;40.80;;;8.00;99.90;;;;;;5019454;28;20214;-91
2021/01/03 03:05:37;;;;;;;;;;;;;;;;;;;;;
2021/01/03 03:08:47;;;;;;;;;;;;;;;;;;;;;
2021/01/03 03:12:12;;;;;;;119.97;42.40;;;8.10;99.90;;;;;;5034356;28;20223;-91
2021/01/03 03:15:03;;;;;;;119.57;42.07;;;8.10;99.90;;;;;;5026157;28;20200;-89
2021/01/03 03:17:52;;;;;;;106.23;40.17;;;8.10;99.90;;;;;;5017328;28;20196;-89
2021/01/03 03:20:46;;;;;;;;;;;;;;;;;;;;;
2021/01/03 03:27:28;;;;;;;;;;;;;;;;;;;;;
2021/01/03 03:33:48;;;;;;;;;;;;;;;;;;;;;
2021/01/03 03:36:39;;;;;;;87.87;35.40;;;7.80;99.90;;;;;;5024522;28;20186;-89
2021/01/03 03:39:55;;;;;;;;;;;;;;;;;;;;;
2021/01/03 03:43:09;;;;;;;;;;;;;;;;;;;;;
2021/01/03 03:45:57;;;;;;;;;;;;;;;;;;;;;
2021/01/03 03:49:16;;;;;;;;;;;;;;;;;;;;;
2021/01/03 03:55:50;;;;;;;85.57;35.00;;;7.40;99.90;;;;;;5001143;28;20180;-91
2021/01/03 03:58:31;;;;;;;;;;;;;;;;;;;;;
2021/01/03 04:01:37;;;;;;;;;;;;;;;;;;;;;
2021/01/03 04:08:10;;;;;;;;;;;;;;;;;;;;;
2021/01/03 04:11:06;;;;;;;86.53;35.67;;;6.80;99.90;;;;;;4991160;28;20181;-91
2021/01/03 04:17:13;;;;;;;;;;;;;;;;;;;;;
2021/01/03 04:20:18;;;;;;;;;;;;;;;;;;;;;
2021/01/03 04:23:32;;;;;;;;;;;;;;;;;;;;;
2021/01/03 04:26:23;;;;;;;84.87;33.17;;;6.40;99.90;;;;;;5002027;28;20183;-91
2021/01/03 04:29:26;;;;;;;81.07;31.03;;;6.00;99.90;;;;;;5005158;28;20680;-91
2021/01/03 04:32:57;;;;;;;;;;;;;;;;;;;;;
2021/01/03 04:38:56;;;;;;;;;;;;;;;;;;;;;
2021/01/03 04:42:18;;;;;;;70.47;28.97;;;5.50;99.90;;;;;;4956905;29;20679;-91
2021/01/03 04:45:16;;;;;;;69.57;28.77;;;5.10;99.90;;;;;;5028366;28;20200;-91
2021/01/03 04:48:06;;;;;;;;;;;;;;;;;;;;;
2021/01/03 04:50:53;;;;;;;77.30;29.77;;;5.10;99.90;;;;;;5057736;28;20176;-91
2021/01/03 04:54:31;;;;;;;70.37;30.23;;;5.00;99.90;;;;;;5018985;28;20192;-91
2021/01/03 05:01:05;;;;;;;78.13;27.90;;;5.10;99.90;;;;;;5005485;28;20322;-91
2021/01/03 05:03:53;;;;;;;69.53;27.97;;;5.30;99.90;;;;;;5038977;28;20165;-91
2021/01/03 05:10:22;;;;;;;;;;;;;;;;;;;;;
2021/01/03 05:13:20;;;;;;;;;;;;;;;;;;;;;
2021/01/03 05:16:45;;;;;;;;;;;;;;;;;;;;;
2021/01/03 05:19:46;;;;;;;;;;;;;;;;;;;;;
2021/01/03 05:22:33;;;;;;;74.27;29.33;;;5.70;99.90;;;;;;5036799;28;20179;-91
2021/01/03 05:26:35;;;;;;;77.00;29.10;;;5.70;99.90;;;;;;5022283;28;20243;-91
2021/01/03 05:35:10;;;;;;;84.07;28.27;;;4.70;99.90;;;;;;5059327;28;20184;-90
2021/01/03 05:38:13;;;;;;;;;;;;;;;;;;;;;
2021/01/03 05:40:59;;;;;;;73.23;27.20;;;4.60;99.90;;;;;;5059379;28;20215;-90
2021/01/03 05:43:55;;;;;;;92.37;28.10;;;4.50;99.90;;;;;;5038838;28;20187;-91
2021/01/03 05:46:45;;;;;;;88.77;28.83;;;4.50;99.90;;;;;;5012024;28;20246;-91
2021/01/03 05:49:45;;;;;;;90.87;27.37;;;4.60;99.90;;;;;;4984464;28;20216;-91
2021/01/03 05:52:54;;;;;;;;;;;;;;;;;;;;;
2021/01/03 05:55:48;;;;;;;;;;;;;;;;;;;;;
2021/01/03 05:58:37;;;;;;;;;;;;;;;;;;;;;
2021/01/03 06:01:35;;;;;;;91.27;28.90;;;4.80;99.90;;;;;;4955209;29;20194;-91
2021/01/03 06:14:13;;;;;;;90.07;27.43;;;5.10;99.90;;;;;;5015580;28;20629;-91
2021/01/03 06:17:23;;;;;;;;;;;;;;;;;;;;;
2021/01/03 06:21:06;;;;;;;;;;;;;;;;;;;;;
2021/01/03 06:24:12;;;;;;;91.10;27.93;;;4.90;99.90;;;;;;4970666;28;20193;-91
2021/01/03 06:27:29;;;;;;;90.13;27.37;;;4.90;99.90;;;;;;4956636;28;20196;-91
2021/01/03 06:33:52;;;;;;;;;;;;;;;;;;;;;
2021/01/03 06:37:10;;;;;;;79.30;27.23;;;4.70;99.90;;;;;;5035111;28;20260;-91
2021/01/03 06:40:10;;;;;;;81.30;26.30;;;4.60;99.90;;;;;;5031589;28;20532;-91
2021/01/03 06:42:57;;;;;;;74.10;25.23;;;4.50;99.90;;;;;;5017059;28;20206;-91
2021/01/03 06:46:00;;;;;;;74.93;25.77;;;4.50;99.90;;;;;;5013332;28;20199;-91
2021/01/03 06:49:12;;;;;;;70.43;25.03;;;4.50;99.90;;;;;;5025855;28;20246;-91
2021/01/03 06:52:04;;;;;;;71.50;25.33;;;4.50;99.90;;;;;;4980787;28;20199;-91
2021/01/03 06:55:09;;;;;;;;;;;;;;;;;;;;;
2021/01/03 06:58:36;;;;;;;60.80;22.87;;;4.60;99.90;;;;;;4955225;28;20202;-91
2021/01/03 07:01:28;;;;;;;74.67;25.33;;;4.70;99.90;;;;;;4948606;28;20297;-91
2021/01/03 07:04:37;;;;;;;79.67;25.70;;;4.90;99.90;;;;;;4996711;28;20275;-91
2021/01/03 07:08:00;;;;;;;76.03;25.90;;;5.10;99.90;;;;;;5002823;28;20181;-91
2021/01/03 07:10:54;;;;;;;66.37;24.13;;;4.80;99.90;;;;;;4982069;28;20188;-91
2021/01/03 07:13:42;;;;;;;;;;;;;;;;;;;;;
2021/01/03 07:16:20;;;;;;;;;;;;;;;;;;;;;
2021/01/03 07:19:35;;;;;;;76.03;26.10;;;4.70;99.90;;;;;;5036531;28;20263;-91
2021/01/03 07:22:16;;;;;;;78.17;24.83;;;4.60;99.90;;;;;;5013430;28;20196;-91
2021/01/03 07:25:34;;;;;;;74.60;26.53;;;4.60;99.90;;;;;;5016926;28;20183;-91
2021/01/03 07:28:40;;;;;;;;;;;;;;;;;;;;;
2021/01/03 07:31:41;;;;;;;;;;;;;;;;;;;;;
2021/01/03 07:38:19;;;;;;;;;;;;;;;;;;;;;
2021/01/03 07:41:17;;;;;;;71.80;27.43;;;4.90;99.90;;;;;;5033822;28;20230;-91
2021/01/03 07:43:58;;;;;;;85.13;30.60;;;4.80;99.90;;;;;;5018238;28;20184;-85
2021/01/03 07:46:43;;;;;;;79.50;27.60;;;4.80;99.90;;;;;;5033776;28;20188;-85
2021/01/03 07:49:35;;;;;;;77.43;27.13;;;5.10;99.90;;;;;;5012831;28;20267;-85
2021/01/03 07:52:17;;;;;;;80.80;27.67;;;5.50;99.90;;;;;;4996488;28;20200;-86
2021/01/03 07:54:54;;;;;;;87.93;29.63;;;5.80;99.90;;;;;;5014279;28;20192;-86
2021/01/03 07:57:26;;;;;;;88.63;30.17;;;6.00;99.90;;;;;;5016648;28;20187;-85
2021/01/03 07:59:53;;;;;;;92.20;29.77;;;6.20;99.90;;;;;;5016943;28;20584;-84
2021/01/03 08:02:29;;;;;;;80.13;29.50;;;6.40;99.90;;;;;;5019152;28;20187;-84
2021/01/03 08:05:00;;;;;;;83.30;27.67;;;6.10;99.90;;;;;;5036389;28;20704;-85
2021/01/03 08:07:26;;;;;;;83.97;28.67;;;5.60;99.90;;;;;;5019137;28;20234;-84
2021/01/03 08:09:52;;;;;;;90.30;30.80;;;5.70;99.90;;;;;;5015611;28;20279;-84
2021/01/03 08:12:30;;;;;;;86.07;30.07;;;6.00;99.90;;;;;;5017452;28;20208;-85
2021/01/03 08:15:27;;;;;;;96.13;31.93;;;6.20;99.90;;;;;;5015502;28;20710;-84
2021/01/03 08:18:00;;;;;;;92.03;31.07;;;6.40;99.90;;;;;;4997047;28;20207;-83
2021/01/03 08:20:26;;;;;;;100.97;33.43;;;6.10;99.90;;;;;;5033856;28;20220;-84
2021/01/03 08:22:52;;;;;;;89.03;30.70;;;6.00;99.90;;;;;;5036512;28;20183;-84
2021/01/03 08:25:27;;;;;;;95.17;32.87;;;6.30;99.90;;;;;;5036361;28;20536;-84
2021/01/03 08:28:09;;;;;;;94.70;32.27;;;6.60;99.90;;;;;;5018755;28;20187;-84
2021/01/03 08:30:36;;;;;;;94.00;34.93;;;6.60;99.90;;;;;;5018270;28;20231;-84
2021/01/03 08:33:16;;;;;;;90.87;33.47;;;6.50;99.90;;;;;;5018601;28;20199;-84
2021/01/03 08:35:41;;;;;;;95.80;35.07;;;6.30;99.90;;;;;;5036413;28;20176;-84
2021/01/03 08:38:07;;;;;;;110.97;35.70;;;6.30;99.90;;;;;;5034741;28;20188;-84
2021/01/03 08:40:36;;;;;;;103.27;34.30;;;6.30;99.90;;;;;;5008039;28;20310;-84
2021/01/03 08:43:10;;;;;;;100.93;35.20;;;6.30;99.90;;;;;;5018161;28;20176;-84
2021/01/03 08:45:38;;;;;;;98.03;35.47;;;5.80;99.90;;;;;;5036002;28;20172;-84
2021/01/03 08:48:07;;;;;;;98.40;33.50;;;5.80;99.90;;;;;;5018820;28;20180;-84
2021/01/03 08:50:36;;;;;;;99.20;35.10;;;5.90;99.90;;;;;;5035906;28;20262;-84
2021/01/03 08:53:16;;;;;;;105.43;35.80;;;6.10;99.90;;;;;;5014366;28;20179;-83
2021/01/03 08:55:42;;;;;;;101.40;34.10;;;6.10;99.90;;;;;;5015995;28;20268;-83
2021/01/03 08:58:13;;;;;;;93.17;34.97;;;5.90;99.90;;;;;;4998352;28;20208;-84
2021/01/03 09:00:42;;;;;;;105.37;35.90;;;5.80;99.90;;;;;;4999756;28;20212;-84
2021/01/03 09:03:19;;;;;;;104.57;35.57;;;5.90;99.90;;;;;;5016943;28;20644;-85
2021/01/03 09:05:47;;;;;;;101.87;35.07;;;6.20;99.90;;;;;;5034202;28;20179;-83
2021/01/03 09:08:37;;;;;;;102.93;34.20;;;6.30;99.90;;;;;;5031646;28;20192;-84
2021/01/03 09:11:26;;;;;;;92.57;34.20;;;6.40;99.90;;;;;;5017333;28;20199;-85
2021/01/03 09:13:56;;;;;;;96.57;34.47;;;6.30;99.90;;;;;;5034810;28;20188;-85
2021/01/03 09:16:39;;;;;;;100.70;35.67;;;6.50;99.90;;;;;;5031772;28;20271;-83
2021/01/03 09:19:25;;;;;;;100.33;35.53;;;6.60;99.90;;;;;;5034607;28;20192;-84
2021/01/03 09:22:01;;;;;;;98.70;34.50;;;6.50;99.90;;;;;;5031396;28;20219;-84
2021/01/03 09:24:31;;;;;;;101.67;36.03;;;6.50;99.90;;;;;;5031978;28;20882;-84
2021/01/03 09:26:59;;;;;;;102.10;36.13;;;6.40;99.90;;;;;;5035356;28;20251;-85
2021/01/03 09:29:31;;;;;;;99.10;34.07;;;6.40;99.90;;;;;;5034561;28;20215;-84
2021/01/03 09:32:18;;;;;;;97.73;34.73;;;5.90;99.90;;;;;;5017191;28;20179;-83
2021/01/03 09:35:01;;;;;;;94.73;33.27;;;5.50;99.90;;;;;;5017273;28;20258;-85
2021/01/03 09:37:32;;;;;;;99.33;34.63;;;5.60;99.90;;;;;;5024108;28;20234;-83
2021/01/03 09:40:29;;;;;;;104.37;36.40;;;5.70;99.90;;;;;;5048834;28;20207;-85
2021/01/03 09:43:14;;;;;;;95.63;35.50;;;5.60;99.90;;;;;;5038254;28;20232;-84
2021/01/03 09:46:09;;;;;;;105.23;35.17;;;5.20;99.90;;;;;;5033994;28;20219;-84
2021/01/03 09:48:39;;;;;;;94.13;35.23;;;5.50;99.90;;;;;;5016873;28;20267;-84
2021/01/03 09:51:33;;;;;;;96.57;35.97;;;5.60;99.90;;;;;;5034309;28;20646;-84
2021/01/03 09:54:03;;;;;;;90.17;34.80;;;5.70;99.90;;;;;;5018447;28;20235;-84
2021/01/03 09:56:38;;;;;;;97.53;34.43;;;6.00;99.90;;;;;;5024433;28;20184;-83
2021/01/03 09:59:14;;;;;;;95.97;36.30;;;6.00;99.90;;;;;;5038497;28;20716;-84
2021/01/03 10:01:40;;;;;;;93.23;35.20;;;5.90;99.90;;;;;;5022663;28;20211;-83
2021/01/03 10:04:28;;;;;;;104.73;36.93;;;5.50;99.90;;;;;;5032934;28;20230;-83
2021/01/03 10:07:09;;;;;;;99.80;37.53;;;5.50;99.90;;;;;;5034034;28;20176;-83
2021/01/03 10:09:36;;;;;;;94.00;37.63;;;5.50;99.90;;;;;;5028769;28;20188;-83
2021/01/03 10:12:32;;;;;;;101.07;39.63;;;5.60;99.90;;;;;;5013133;28;20188;-83
2021/01/03 10:15:06;;;;;;;100.63;38.70;;;5.70;99.90;;;;;;5014664;28;20172;-84
2021/01/03 10:17:32;;;;;;;104.90;40.57;;;5.60;99.90;;;;;;5030416;28;20207;-83
2021/01/03 10:19:58;;;;;;;111.63;40.93;;;5.90;99.90;;;;;;4999834;28;20255;-83
2021/01/03 10:22:25;;;;;;;106.93;43.10;;;6.10;99.90;;;;;;5015563;28;20220;-83
2021/01/03 10:24:55;;;;;;;106.40;41.13;;;5.50;99.90;;;;;;5016101;28;20219;-84
2021/01/03 10:27:21;;;;;;;111.10;41.63;;;5.50;99.90;;;;;;5016607;28;20188;-83
2021/01/03 10:29:46;;;;;;;98.87;42.03;;;5.80;99.90;;;;;;4996070;28;20199;-84
2021/01/03 10:32:12;;;;;;;106.70;41.73;;;6.20;99.90;;;;;;4997379;28;20195;-84
2021/01/03 10:34:38;;;;;;;105.23;40.73;;;6.40;99.90;;;;;;4996666;28;20625;-82
2021/01/03 10:37:05;;;;;;;102.87;41.20;;;6.60;99.90;;;;;;5014326;28;20191;-85
2021/01/03 10:39:31;;;;;;;101.23;39.87;;;6.60;99.90;;;;;;5001405;28;20184;-84
2021/01/03 10:41:58;;;;;;;106.53;39.70;;;6.50;99.90;;;;;;5016917;28;20286;-83
2021/01/03 10:44:24;;;;;;;102.83;40.30;;;5.90;99.90;;;;;;5000641;28;20618;-84
2021/01/03 10:46:50;;;;;;;104.53;39.83;;;5.50;99.90;;;;;;5033953;28;20203;-83
2021/01/03 10:49:16;;;;;;;103.63;38.33;;;5.70;99.90;;;;;;5003022;28;20195;-84
2021/01/03 10:51:44;;;;;;;98.83;39.07;;;5.90;99.90;;;;;;5035732;28;20590;-83
2021/01/03 10:54:17;;;;;;;104.47;38.83;;;5.90;99.90;;;;;;5017552;28;20563;-84
2021/01/03 10:56:47;;;;;;;95.90;38.13;;;6.10;99.90;;;;;;5035649;28;20189;-83
2021/01/03 10:59:13;;;;;;;104.57;40.20;;;6.20;99.90;;;;;;5035628;28;20180;-84
2021/01/03 11:01:39;;;;;;;93.20;37.60;;;6.30;99.90;;;;;;5001321;28;20303;-84
2021/01/03 11:04:05;;;;;;;89.47;37.37;;;6.50;99.90;;;;;;5001427;28;20552;-83
2021/01/03 11:06:39;;;;;;;91.90;36.97;;;6.20;99.90;;;;;;5018444;28;20594;-83
2021/01/03 11:09:07;;;;;;;94.63;38.83;;;6.00;99.90;;;;;;5012784;28;20173;-84
2021/01/03 11:11:33;;;;;;;91.00;37.10;;;6.00;99.90;;;;;;5027456;28;20673;-84
2021/01/03 11:13:59;;;;;;;99.60;40.00;;;6.10;99.90;;;;;;5014503;28;20189;-84
2021/01/03 11:16:39;;;;;;;88.30;35.57;;;6.30;99.90;;;;;;4997758;28;20185;-84
2021/01/03 11:19:06;;;;;;;93.33;36.57;;;6.30;99.90;;;;;;5001661;28;20351;-84
2021/01/03 11:21:32;;;;;;;96.33;35.70;;;6.20;99.90;;;;;;5013874;28;20685;-84
2021/01/03 11:23:58;;;;;;;98.37;37.13;;;6.30;99.90;;;;;;5000396;28;20199;-84
2021/01/03 11:26:32;;;;;;;86.80;35.63;;;6.40;99.90;;;;;;5000769;28;20188;-84
2021/01/03 11:28:58;;;;;;;80.10;33.80;;;6.30;99.90;;;;;;5032813;28;20179;-85
2021/01/03 11:31:52;;;;;;;93.03;35.93;;;6.50;99.90;;;;;;5017119;28;20215;-85
2021/01/03 11:34:20;;;;;;;84.43;35.10;;;6.70;99.90;;;;;;5038726;28;20192;-83
2021/01/03 11:37:15;;;;;;;85.73;33.83;;;6.90;99.90;;;;;;5035853;28;20176;-83
2021/01/03 11:39:40;;;;;;;73.13;30.17;;;6.90;99.90;;;;;;5034127;28;20188;-84
2021/01/03 11:42:13;;;;;;;77.30;33.13;;;6.60;99.90;;;;;;5019788;28;20208;-84
2021/01/03 11:44:40;;;;;;;70.23;31.07;;;6.50;99.90;;;;;;5037626;28;20170;-83
2021/01/03 11:47:09;;;;;;;74.63;29.67;;;6.20;99.90;;;;;;5038546;28;20185;-83
2021/01/03 11:49:36;;;;;;;69.60;29.40;;;6.20;99.90;;;;;;5016853;28;20275;-84
2021/01/03 11:52:06;;;;;;;64.40;28.20;;;6.00;99.90;;;;;;5033739;28;20278;-84
2021/01/03 11:54:33;;;;;;;64.00;27.47;;;6.00;99.90;;;;;;5037615;28;20179;-83
2021/01/03 11:56:59;;;;;;;64.50;27.27;;;5.60;99.90;;;;;;5037573;28;20629;-83
2021/01/03 11:59:26;;;;;;;65.40;27.60;;;5.30;99.90;;;;;;5019934;28;20183;-83
2021/01/03 12:01:59;;;;;;;67.83;28.30;;;5.40;99.90;;;;;;5020985;28;20212;-84
2021/01/03 12:04:26;;;;;;;62.80;26.93;;;5.40;99.90;;;;;;5046712;28;20168;-85
2021/01/03 12:06:54;;;;;;;59.97;27.17;;;5.30;99.90;;;;;;5053926;28;20183;-85
2021/01/03 12:09:20;;;;;;;60.57;25.23;;;5.30;99.90;;;;;;5027159;28;20545;-84
2021/01/03 12:11:51;;;;;;;62.13;27.67;;;5.30;99.90;;;;;;5020668;28;20188;-82
2021/01/03 12:14:16;;;;;;;58.03;24.97;;;5.20;99.90;;;;;;5004463;28;20207;-82
2021/01/03 12:16:42;;;;;;;56.63;23.87;;;5.30;99.90;;;;;;5039681;28;20582;-82
2021/01/03 12:19:07;;;;;;;63.20;25.97;;;5.20;99.90;;;;;;5003831;28;20185;-83
2021/01/03 12:21:33;;;;;;;58.23;25.20;;;5.30;99.90;;;;;;5012099;28;20217;-83
2021/01/03 12:23:59;;;;;;;54.93;24.57;;;5.40;99.90;;;;;;5013452;28;20184;-83
2021/01/03 12:26:40;;;;;;;50.17;23.67;;;5.40;99.90;;;;;;5007581;28;20283;-84
2021/01/03 12:29:07;;;;;;;52.73;23.70;;;5.40;99.90;;;;;;5038602;28;20214;-84
2021/01/03 12:31:36;;;;;;;57.83;24.47;;;5.30;99.90;;;;;;5020857;28;20210;-85
2021/01/03 12:34:01;;;;;;;50.63;25.17;;;5.20;99.90;;;;;;5037855;28;20180;-84
2021/01/03 12:36:27;;;;;;;50.27;22.67;;;5.30;99.90;;;;;;5020206;28;20192;-85
2021/01/03 12:38:53;;;;;;;47.63;22.17;;;5.10;99.90;;;;;;5004486;28;20188;-84
2021/01/03 12:41:20;;;;;;;38.90;20.17;;;5.20;99.90;;;;;;5000758;28;20752;-84
2021/01/03 12:43:47;;;;;;;45.60;22.10;;;5.30;99.90;;;;;;5033491;28;20184;-84
2021/01/03 12:46:14;;;;;;;44.03;20.97;;;5.20;99.90;;;;;;5003167;28;20188;-84
2021/01/03 12:48:41;;;;;;;56.47;20.90;;;5.20;99.90;;;;;;5020201;28;20176;-84
2021/01/03 12:51:07;;;;;;;40.17;20.33;;;5.30;99.90;;;;;;5020170;28;20199;-83
2021/01/03 12:53:33;;;;;;;38.37;20.43;;;5.10;99.90;;;;;;5019900;28;20633;-84
2021/01/03 12:55:58;;;;;;;40.47;20.43;;;5.00;99.90;;;;;;5019335;28;20259;-78
2021/01/03 12:58:24;;;;;;;38.10;19.33;;;5.10;99.90;;;;;;5019532;28;20534;-84
2021/01/03 13:00:50;;;;;;;32.50;17.93;;;5.10;99.90;;;;;;5002470;28;20215;-84
2021/01/03 13:03:15;;;;;;;38.43;19.40;;;5.10;99.90;;;;;;5003053;28;20625;-84
2021/01/03 13:05:41;;;;;;;37.73;18.67;;;5.10;99.90;;;;;;5016008;28;20185;-84
2021/01/03 13:08:07;;;;;;;39.17;19.80;;;5.10;99.90;;;;;;5017986;28;20180;-84
2021/01/03 13:10:33;;;;;;;36.30;17.50;;;5.00;99.90;;;;;;5024437;28;20180;-83
2021/01/03 13:12:59;;;;;;;40.30;19.17;;;5.00;99.90;;;;;;5003770;28;20180;-84
2021/01/03 13:15:24;;;;;;;37.13;18.27;;;5.00;99.90;;;;;;5004765;28;20180;-83
2021/01/03 13:17:50;;;;;;;34.67;18.00;;;4.80;99.90;;;;;;5020012;28;20200;-84
2021/01/03 13:20:16;;;;;;;38.43;18.27;;;4.70;99.90;;;;;;5003707;28;20756;-84
2021/01/03 13:22:42;;;;;;;36.30;18.77;;;4.80;99.90;;;;;;5015782;28;20189;-83
2021/01/03 13:25:08;;;;;;;39.43;16.57;;;4.90;99.90;;;;;;4982321;28;20247;-83
2021/01/03 13:27:34;;;;;;;38.93;17.83;;;5.00;99.90;;;;;;5011686;28;20259;-84
2021/01/03 13:30:00;;;;;;;33.33;17.10;;;5.00;99.90;;;;;;5018164;28;20279;-83
2021/01/03 13:32:26;;;;;;;32.57;17.33;;;5.10;99.90;;;;;;5001508;28;20180;-83
2021/01/03 13:34:52;;;;;;;35.20;17.17;;;4.90;99.90;;;;;;5035581;28;20180;-83
2021/01/03 13:37:17;;;;;;;32.47;18.20;;;4.80;99.90;;;;;;5005653;28;20652;-84
2021/01/03 13:39:43;;;;;;;33.20;16.77;;;4.90;99.90;;;;;;5003434;28;20188;-84
2021/01/03 13:42:09;;;;;;;33.03;17.60;;;4.90;99.90;;;;;;5021596;28;20211;-83
2021/01/03 13:44:34;;;;;;;32.90;17.40;;;4.80;99.90;;;;;;5001128;28;20652;-83
2021/01/03 13:47:00;;;;;;;28.67;14.37;;;4.80;99.90;;;;;;5003686;28;20275;-83
2021/01/03 13:49:27;;;;;;;29.43;15.07;;;4.80;99.90;;;;;;5003817;28;20638;-85
2021/01/03 13:51:53;;;;;;;26.10;14.47;;;4.70;99.90;;;;;;5016661;28;20193;-84
2021/01/03 13:54:19;;;;;;;32.57;16.40;;;4.70;99.90;;;;;;5000111;28;20264;-84
2021/01/03 13:56:45;;;;;;;26.43;14.83;;;4.80;99.90;;;;;;4998582;28;20626;-83
2021/01/03 13:59:11;;;;;;;26.83;15.43;;;5.00;99.90;;;;;;5002846;28;20660;-85
2021/01/03 14:01:37;;;;;;;27.23;15.17;;;4.90;99.90;;;;;;5001725;28;20242;-84
2021/01/03 14:04:08;;;;;;;29.30;15.00;;;4.80;99.90;;;;;;5018888;28;20512;-84
2021/01/03 14:06:34;;;;;;;24.30;14.90;;;4.90;99.90;;;;;;5035617;28;20169;-84
2021/01/03 14:09:00;;;;;;;32.20;15.07;;;4.90;99.90;;;;;;5017684;28;20263;-84
2021/01/03 14:11:28;;;;;;;30.50;15.07;;;5.00;99.90;;;;;;5035158;28;20315;-84
2021/01/03 14:13:55;;;;;;;25.10;13.90;;;5.00;99.90;;;;;;5033749;28;20176;-84
2021/01/03 14:16:23;;;;;;;29.23;15.40;;;4.90;99.90;;;;;;5001457;28;20279;-84
2021/01/03 14:18:50;;;;;;;27.90;14.37;;;4.70;99.90;;;;;;5035489;28;20259;-84
2021/01/03 14:21:17;;;;;;;28.93;15.43;;;4.70;99.90;;;;;;4999872;28;20250;-84
2021/01/03 14:23:43;;;;;;;28.23;15.63;;;4.70;99.90;;;;;;5017215;28;20192;-84
2021/01/03 14:26:09;;;;;;;25.43;14.67;;;4.70;99.90;;;;;;5035016;28;20212;-84
2021/01/03 14:28:35;;;;;;;27.93;15.07;;;4.70;99.90;;;;;;5036732;28;20246;-84
2021/01/03 14:31:02;;;;;;;28.03;15.07;;;4.70;99.90;;;;;;5054827;28;20175;-85
2021/01/03 14:33:29;;;;;;;30.00;15.87;;;4.80;99.90;;;;;;5036717;28;20214;-84
2021/01/03 14:36:06;;;;;;;24.73;14.30;;;5.00;99.90;;;;;;5009054;28;20184;-84
2021/01/03 14:38:33;;;;;;;21.97;14.00;;;5.20;99.90;;;;;;5022797;28;20196;-85
2021/01/03 14:41:00;;;;;;;21.03;13.80;;;5.20;99.90;;;;;;5001119;28;20227;-85
2021/01/03 14:43:36;;;;;;;23.33;13.93;;;5.20;99.90;;;;;;5035187;28;20184;-85
2021/01/03 14:46:15;;;;;;;25.80;13.80;;;5.20;99.90;;;;;;5021688;28;20176;-84
2021/01/03 14:49:05;;;;;;;23.63;13.90;;;5.20;99.90;;;;;;5055022;28;20176;-84
2021/01/03 14:52:00;;;;;;;29.97;14.93;;;5.00;99.90;;;;;;5019250;28;20204;-85
2021/01/03 14:54:41;;;;;;;25.07;13.03;;;4.90;99.90;;;;;;5014591;28;20184;-85
2021/01/03 14:57:26;;;;;;;19.10;13.30;;;4.70;99.90;;;;;;5027256;28;20769;-84
2021/01/03 15:00:01;;;;;;;21.07;12.97;;;4.60;99.90;;;;;;5011749;28;20259;-85
2021/01/03 15:02:39;;;;;;;20.20;12.33;;;4.50;99.90;;;;;;5016559;28;20278;-84
2021/01/03 15:05:20;;;;;;;21.57;13.50;;;4.60;99.90;;;;;;5032926;28;20187;-79
2021/01/03 15:07:50;;;;;;;25.40;12.50;;;4.70;99.90;;;;;;5015082;28;20211;-91
2021/01/03 15:10:25;;;;;;;22.07;12.40;;;4.80;99.90;;;;;;5018582;28;20189;-91
2021/01/03 15:12:51;;;;;;;20.07;12.50;;;4.70;99.90;;;;;;5018434;28;20175;-91
2021/01/03 15:15:41;;;;;;;18.50;12.47;;;4.60;99.90;;;;;;5000632;28;20195;-91
2021/01/03 15:18:12;;;;;;;19.70;12.40;;;4.70;99.90;;;;;;5012852;28;20646;-91
2021/01/03 15:20:42;;;;;;;18.43;12.50;;;4.70;99.90;;;;;;5023665;28;20363;-91
2021/01/03 15:23:14;;;;;;;20.15;13.70;;;4.70;99.90;;;;;;5032672;28;20449;-90
2021/01/03 15:25:45;;;;;;;14.67;11.07;;;4.70;99.90;;;;;;5018258;28;20732;-92
2021/01/03 15:28:14;;;;;;;16.43;10.77;;;4.60;99.90;;;;;;5019710;28;20208;-91
2021/01/03 15:30:49;;;;;;;15.23;10.50;;;4.60;99.90;;;;;;5004143;28;20192;-90
2021/01/03 15:33:22;;;;;;;19.07;11.50;;;4.60;99.90;;;;;;5018423;28;20196;-92
2021/01/03 15:35:48;;;;;;;18.50;11.00;;;4.60;99.90;;;;;;5021663;28;20181;-91
2021/01/03 15:38:17;;;;;;;19.17;11.63;;;4.40;99.90;;;;;;5015684;28;20164;-92
2021/01/03 15:40:52;;;;;;;14.03;10.43;;;4.40;99.90;;;;;;5015614;28;20220;-91
2021/01/03 15:43:55;;;;;;;14.87;9.97;;;4.40;99.90;;;;;;5025736;28;20191;-91
2021/01/03 15:46:44;;;;;;;14.70;10.03;;;4.50;99.90;;;;;;5035887;28;20180;-91
2021/01/03 15:49:14;;;;;;;17.17;10.43;;;4.40;99.90;;;;;;5019823;28;20231;-91
2021/01/03 15:51:40;;;;;;;16.53;10.67;;;4.40;99.90;;;;;;4999701;28;20535;-92
2021/01/03 15:54:07;;;;;;;14.43;9.97;;;4.40;99.90;;;;;;5028777;28;20212;-92
2021/01/03 15:56:37;;;;;;;18.00;10.00;;;4.50;99.90;;;;;;5019582;28;20215;-92
2021/01/03 15:59:03;;;;;;;15.10;10.17;;;4.50;99.90;;;;;;5020240;28;20539;-90
2021/01/03 16:01:35;;;;;;;11.60;9.20;;;4.50;99.90;;;;;;5004034;28;20216;-91
2021/01/03 16:04:01;;;;;;;11.53;8.97;;;4.40;99.90;;;;;;5020676;28;20271;-91
2021/01/03 16:06:39;;;;;;;10.60;9.00;;;4.40;99.90;;;;;;5004986;28;20203;-91
2021/01/03 16:09:09;;;;;;;11.50;9.67;;;4.40;99.90;;;;;;5021724;28;20596;-90
2021/01/03 16:11:35;;;;;;;12.57;9.30;;;4.40;99.90;;;;;;5015132;28;20224;-91
2021/01/03 16:14:01;;;;;;;12.57;9.53;;;4.40;99.90;;;;;;4992366;28;20541;-91
2021/01/03 16:16:37;;;;;;;13.53;9.43;;;4.40;99.90;;;;;;5004034;28;20192;-92
2021/01/03 16:19:19;;;;;;;11.50;9.60;;;4.50;99.90;;;;;;5013987;28;20184;-92
2021/01/03 16:22:15;;;;;;;12.23;9.30;;;4.60;99.90;;;;;;5003182;28;20213;-92
2021/01/03 16:24:49;;;;;;;17.67;9.67;;;4.70;99.90;;;;;;5021404;28;20235;-92
2021/01/03 16:27:24;;;;;;;16.60;10.43;;;4.70;99.90;;;;;;5038729;28;20194;-92
2021/01/03 16:30:00;;;;;;;13.47;9.50;;;4.70;99.90;;;;;;5028513;28;20238;-92
2021/01/03 16:32:46;;;;;;;11.37;9.23;;;4.60;99.90;;;;;;5038557;28;20183;-92
2021/01/03 16:35:47;;;;;;;16.00;10.10;;;4.50;99.90;;;;;;5054065;28;20248;-92
2021/01/03 16:38:33;;;;;;;12.90;9.87;;;4.50;99.90;;;;;;5036303;28;20211;-92
2021/01/03 16:41:11;;;;;;;16.30;10.00;;;4.40;99.90;;;;;;5023226;28;20246;-92
2021/01/03 16:43:54;;;;;;;10.20;8.80;;;4.30;99.90;;;;;;5043319;28;20239;-92
2021/01/03 16:46:32;;;;;;;11.07;9.43;;;4.40;99.90;;;;;;5019176;28;20278;-93
2021/01/03 16:49:05;;;;;;;14.57;9.97;;;4.50;99.90;;;;;;5024321;28;20196;-93
2021/01/03 16:51:40;;;;;;;13.80;9.47;;;4.50;99.90;;;;;;5039683;28;20188;-92
2021/01/03 16:54:50;;;;;;;10.77;9.17;;;4.40;99.90;;;;;;5022290;28;20198;-92
2021/01/03 16:57:24;;;;;;;12.80;9.03;;;4.40;99.90;;;;;;5006250;28;20207;-91
2021/01/03 17:00:08;;;;;;;13.50;9.93;;;4.50;99.90;;;;;;5042111;28;20171;-91
2021/01/03 17:02:39;;;;;;;14.80;10.37;;;4.40;99.90;;;;;;5038128;28;20204;-92
2021/01/03 17:05:12;;;;;;;13.40;10.13;;;4.50;99.90;;;;;;5041953;28;20173;-93
2021/01/03 17:08:16;;;;;;;16.23;10.10;;;4.40;99.90;;;;;;5019542;28;20185;-92
2021/01/03 17:11:11;;;;;;;13.17;9.53;;;4.50;99.90;;;;;;4999167;28;20188;-92